Time;durP1;ratioP1;P1;durP2;ratioP2;P2;SDS_P1;SDS_P2;PMS_P1;PMS_P2;Temp;Humidity;BMP_temperature;BMP_pressure;BME280_temperature;BME280_humidity;BME280_pressure;Samples;Min_cycle;Max_cycle;Signal;HPM_P1;HPM_P2
2022/11/23 00:12:12;;;;;;;91.57;44.28;;;;;;;1.19;78.79;99090.34;30496358;28;96664;-64
2022/11/23 00:27:13;;;;;;;87.50;42.58;;;;;;;1.12;79.21;99099.72;30495543;28;96670;-64
2022/11/23 00:42:13;;;;;;;72.30;36.53;;;;;;;1.09;79.05;99105.25;30493957;28;96660;-64
2022/11/23 00:57:14;;;;;;;73.32;38.35;;;;;;;1.06;79.50;99097.66;30493149;28;96676;-64
2022/11/23 01:12:14;;;;;;;65.47;36.42;;;;;;;1.01;79.53;99108.53;30491882;28;96627;-64
2022/11/23 01:27:14;;;;;;;64.50;34.67;;;;;;;1.00;79.57;99112.97;30510566;28;96685;-64
2022/11/23 01:42:15;;;;;;;70.18;38.65;;;;;;;0.96;79.53;99122.06;30510089;28;97412;-64
2022/11/23 01:57:20;;;;;;;62.48;34.42;;;;;;;0.91;79.67;99123.44;30509034;28;97395;-64
2022/11/23 02:12:20;;;;;;;;;;;;;;;0.96;79.65;99124.69;30507996;28;97157;-64
2022/11/23 02:27:21;;;;;;;54.75;31.23;;;;;;;1.00;79.79;99117.41;30508274;28;96554;-64
2022/11/23 02:42:24;;;;;;;61.80;32.58;;;;;;;1.03;79.45;99121.53;30505551;28;96455;-64
2022/11/23 02:57:24;;;;;;;58.20;31.15;;;;;;;1.06;80.03;99127.31;30504129;28;96721;-64
2022/11/23 03:12:24;;;;;;;56.65;30.33;;;;;;;1.03;80.18;99118.91;30501700;28;96628;-65
2022/11/23 03:27:25;;;;;;;55.95;30.67;;;;;;;1.18;79.81;99120.19;30501248;28;97196;-64
2022/11/23 03:42:25;;;;;;;55.25;27.73;;;;;;;1.17;79.40;99123.75;30499036;28;96941;-64
2022/11/23 03:57:25;;;;;;;47.55;26.80;;;;;;;1.13;79.98;99117.13;30497194;28;97177;-64
2022/11/23 04:12:26;;;;;;;48.85;28.10;;;;;;;1.10;79.71;99117.41;30494631;28;97059;-64
2022/11/23 04:27:27;;;;;;;53.05;28.48;;;;;;;1.23;80.23;99112.72;30494181;28;96669;-64
2022/11/23 04:42:27;;;;;;;51.08;29.48;;;;;;;1.22;79.80;99112.84;30491575;28;96717;-64
2022/11/23 04:57:27;;;;;;;52.75;30.15;;;;;;;1.26;80.20;99112.44;30488191;28;98219;-64
2022/11/23 05:12:28;;;;;;;52.22;27.70;;;;;;;1.44;80.22;99114.41;30485470;28;97067;-64
2022/11/23 05:27:28;;;;;;;53.30;26.92;;;;;;;1.51;79.86;99120.75;30486525;28;96776;-64
2022/11/23 05:42:28;;;;;;;53.10;30.75;;;;;;;1.49;80.17;99120.03;30487079;28;96584;-64
2022/11/23 05:57:29;;;;;;;52.63;29.27;;;;;;;1.55;79.27;99123.94;30485625;28;97519;-64
2022/11/23 06:12:29;;;;;;;48.13;26.48;;;;;;;1.56;80.34;99134.28;30501469;28;96710;-64
2022/11/23 06:27:30;;;;;;;49.67;26.33;;;;;;;1.62;79.55;99170.47;30503737;28;96684;-64
2022/11/23 06:42:30;;;;;;;47.65;26.58;;;;;;;1.55;79.46;99186.94;30502736;28;96677;-64
2022/11/23 06:57:31;;;;;;;50.35;27.10;;;;;;;1.59;79.42;99191.75;30500756;28;97361;-63
2022/11/23 07:12:31;;;;;;;55.25;27.17;;;;;;;1.58;79.45;99197.97;30496661;28;96628;-64
2022/11/23 07:27:32;;;;;;;45.97;25.48;;;;;;;1.69;79.53;99192.59;30497743;28;96769;-64
2022/11/23 07:42:32;;;;;;;46.55;25.80;;;;;;;1.72;79.75;99211.66;30494174;28;96780;-64
2022/11/23 07:57:33;;;;;;;49.78;27.23;;;;;;;1.79;79.67;99233.78;30493530;28;96839;-64
2022/11/23 08:12:34;;;;;;;43.38;27.10;;;;;;;1.81;79.13;99245.81;30393148;28;96829;-64
2022/11/23 08:27:34;;;;;;;46.58;26.63;;;;;;;2.10;79.35;99247.59;30398914;28;97337;-67
2022/11/23 08:42:34;;;;;;;49.05;26.48;;;;;;;2.24;78.95;99235.84;30489464;28;96834;-67
2022/11/23 08:57:35;;;;;;;51.72;27.58;;;;;;;2.51;78.59;99229.03;30491058;28;97854;-67
2022/11/23 09:12:35;;;;;;;54.38;28.55;;;;;;;2.53;78.95;99206.06;30489062;28;97314;-68
2022/11/23 09:27:36;;;;;;;49.05;27.65;;;;;;;2.87;78.96;99218.66;30477212;28;97185;-67
2022/11/23 09:42:44;;;;;;;48.58;25.77;;;;;;;2.99;78.58;99193.00;30485858;28;97473;-69
2022/11/23 09:57:47;;;;;;;44.55;25.33;;;;;;;3.13;77.84;99175.88;30504499;28;96737;-68
2022/11/23 10:13:27;;;;;;;49.88;26.45;;;;;;;3.48;77.86;99175.09;30496916;28;97042;-69
2022/11/23 10:28:30;;;;;;;46.25;24.77;;;;;;;3.92;77.54;99179.63;30490160;28;97363;-71
2022/11/23 10:43:42;;;;;;;44.72;23.52;;;;;;;4.41;76.77;99165.97;30502556;28;97029;-67
2022/11/23 10:58:45;;;;;;;44.15;22.90;;;;;;;6.02;76.02;99165.16;30502081;28;96640;-71
2022/11/23 11:13:47;;;;;;;33.97;20.47;;;;;;;15.64;68.51;99177.75;30499770;28;96834;-70
2022/11/23 11:28:52;;;;;;;33.27;20.63;;;;;;;20.65;53.95;99175.94;30496929;28;97351;-69
2022/11/23 11:44:06;;;;;;;34.03;22.63;;;;;;;26.91;40.87;99162.31;30497744;28;96638;-68
2022/11/23 11:59:24;;;;;;;36.03;23.13;;;;;;;20.40;39.75;99161.19;30483027;28;97516;-66
2022/11/23 12:14:25;;;;;;;35.83;21.73;;;;;;;14.82;43.83;99160.19;30483078;28;96820;-66
2022/11/23 12:29:44;;;;;;;47.90;22.27;;;;;;;11.98;46.14;99164.72;30483304;28;97533;-66
2022/11/23 12:45:06;;;;;;;37.93;21.57;;;;;;;9.68;49.52;99152.22;30482123;28;97341;-66
2022/11/23 13:00:15;;;;;;;38.57;20.77;;;;;;;8.65;52.22;99165.50;30478046;28;97190;-66
2022/11/23 13:15:40;;;;;;;46.70;23.77;;;;;;;7.34;53.92;99175.31;30473764;28;98462;-65
2022/11/23 13:30:41;;;;;;;48.50;24.63;;;;;;;6.16;56.31;99176.88;30476033;28;97777;-66
2022/11/23 13:45:42;;;;;;;49.47;25.98;;;;;;;5.40;57.90;99193.63;30474070;28;97287;-68
2022/11/23 14:00:56;;;;;;;50.25;26.15;;;;;;;4.84;59.91;99210.88;30473749;28;97476;-66
2022/11/23 14:16:00;;;;;;;46.57;22.80;;;;;;;4.42;60.94;99209.81;30471108;28;97814;-67
2022/11/23 14:31:27;;;;;;;43.93;22.07;;;;;;;4.08;62.34;99223.75;30493559;28;96775;-67
2022/11/23 14:46:27;;;;;;;42.55;21.85;;;;;;;3.83;63.58;99225.34;30495200;28;97253;-67
2022/11/23 15:01:28;;;;;;;42.17;21.90;;;;;;;3.58;64.54;99224.25;30496698;28;97408;-67
2022/11/23 15:16:38;;;;;;;45.55;22.85;;;;;;;3.33;65.47;99224.81;30497391;28;97127;-73
2022/11/23 15:31:39;;;;;;;47.45;23.55;;;;;;;2.98;66.15;99226.38;30479903;28;99106;-66
2022/11/23 15:46:40;;;;;;;51.83;26.88;;;;;;;2.73;67.26;99224.41;30481159;28;97059;-64
2022/11/23 16:01:42;;;;;;;50.33;24.67;;;;;;;2.57;67.64;99219.72;30485073;28;97014;-65
2022/11/23 16:16:44;;;;;;;105.40;45.45;;;;;;;2.26;68.51;99225.22;30483019;28;96747;-65
2022/11/23 16:32:01;;;;;;;68.88;30.73;;;;;;;1.95;69.56;99220.09;30479952;28;97312;-66
2022/11/23 16:47:22;;;;;;;67.85;30.92;;;;;;;1.67;70.20;99218.16;30475346;28;98110;-65
2022/11/23 17:02:24;;;;;;;77.97;36.90;;;;;;;1.50;70.91;99229.31;30485959;28;97104;-64
2022/11/23 17:17:24;;;;;;;74.43;35.88;;;;;;;1.33;71.53;99215.88;30484688;28;96744;-65
2022/11/23 17:32:25;;;;;;;68.55;35.28;;;;;;;1.10;72.32;99222.34;30483020;28;96676;-63
2022/11/23 17:47:28;;;;;;;71.25;33.60;;;;;;;0.84;72.53;99228.03;30374367;28;98314;-63
2022/11/23 18:02:28;;;;;;;68.00;34.22;;;;;;;0.77;73.74;99240.00;30365491;28;97204;-62
2022/11/23 18:17:29;;;;;;;68.20;34.20;;;;;;;0.72;73.94;99260.53;30376177;28;96842;-63
2022/11/23 18:32:29;;;;;;;69.70;36.08;;;;;;;0.67;74.36;99258.31;30373864;28;97529;-66
2022/11/23 18:47:30;;;;;;;78.03;33.40;;;;;;;0.62;74.37;99269.16;30466137;28;96820;-64
2022/11/23 19:02:31;;;;;;;70.70;33.08;;;;;;;0.58;75.15;99270.38;30483590;28;99595;-71
2022/11/23 19:17:32;;;;;;;73.03;37.35;;;;;;;0.54;75.45;99284.69;30487259;28;97132;-66
2022/11/23 19:32:34;;;;;;;96.57;41.83;;;;;;;0.54;75.73;99297.00;30488471;28;97339;-65
2022/11/23 19:47:35;;;;;;;101.10;47.58;;;;;;;0.48;75.65;99290.47;30486765;28;97315;-64
2022/11/23 20:02:35;;;;;;;94.32;45.72;;;;;;;0.35;75.83;99295.88;30484943;28;97276;-70
2022/11/23 20:17:36;;;;;;;97.68;46.33;;;;;;;0.14;76.09;99319.44;30484295;28;97824;-67
2022/11/23 20:32:36;;;;;;;91.30;38.50;;;;;;;-0.12;76.20;99339.84;30484340;28;97194;-68
2022/11/23 20:47:37;;;;;;;76.63;38.97;;;;;;;-0.25;76.61;99337.38;30480941;28;97479;-68
2022/11/23 21:02:37;;;;;;;71.45;35.45;;;;;;;-0.33;77.12;99334.56;30477848;28;96940;-68
2022/11/23 21:17:38;;;;;;;65.43;32.88;;;;;;;-0.36;77.11;99331.22;30480041;28;97523;-67
2022/11/23 21:32:38;;;;;;;69.13;33.25;;;;;;;-0.49;77.03;99343.63;30491963;28;96688;-67
2022/11/23 21:47:39;;;;;;;64.72;31.98;;;;;;;-0.65;77.16;99356.22;30508970;28;97979;-68
2022/11/23 22:02:39;;;;;;;57.17;28.25;;;;;;;-0.83;77.31;99364.53;30409873;28;96750;-66
2022/11/23 22:17:39;;;;;;;61.13;31.35;;;;;;;-1.26;77.30;99379.06;30479039;28;96903;-69
2022/11/23 22:32:40;;;;;;;59.42;27.85;;;;;;;-1.38;77.88;99388.66;30506524;28;96668;-69
2022/11/23 22:47:40;;;;;;;48.50;26.50;;;;;;;-1.56;78.29;99390.00;30504303;28;97260;-65
2022/11/23 23:02:40;;;;;;;51.83;25.00;;;;;;;-1.67;78.56;99398.59;30503823;28;96740;-65
2022/11/23 23:17:41;;;;;;;51.72;25.05;;;;;;;-1.65;79.05;99408.94;30493480;28;96748;-66
2022/11/23 23:32:41;;;;;;;59.85;25.30;;;;;;;-1.63;78.83;99407.06;30500293;28;96710;-67
2022/11/23 23:47:42;;;;;;;46.70;24.67;;;;;;;-1.55;79.01;99407.34;30500073;28;96681;-71
